LXJ5490 KBOS-KMIA
Flight info
| Callsign | LXJ5490 |
|---|---|
| Flight time | N/A |
| Altitude | 34000 |
| Route | SSOXS7 SSOXS Q167 RIFLE HEADI Q97 KALDA Q101 SKARP Y313 HOAGG BNFSH3 |
| Aircraft | GLF6/M-SBDE2E3FGHIJ4J5M1RWXY/LB1D1 |
Departure
| Time | 2026-05-06 18:12 |
|---|---|
| Airport | Boston Logan International Airport (KBOS) |
Arrival
| Time | N/A |
|---|---|
| Airport | Miami International Airport (KMIA) |
| Time | Latitude | Longitude | Altitude | Speed | Heading |
|---|---|---|---|---|---|
| 2026-05-06 17:55 | 42.37310 | -71.01979 | 19 ft | 0 kts | 134° |
| 2026-05-06 18:04 | 42.37305 | -71.01970 | 19 ft | 2 kts | 71° |
| 2026-05-06 18:05 | 42.37354 | -71.01976 | 20 ft | 4 kts | 355° |
| 2026-05-06 18:05 | 42.37378 | -71.01937 | 19 ft | 11 kts | 92° |
| 2026-05-06 18:05 | 42.37341 | -71.01884 | 19 ft | 12 kts | 135° |
| 2026-05-06 18:05 | 42.37264 | -71.01781 | 19 ft | 19 kts | 136° |
| 2026-05-06 18:06 | 42.37169 | -71.01657 | 19 ft | 19 kts | 135° |
| 2026-05-06 18:06 | 42.37081 | -71.01536 | 19 ft | 18 kts | 135° |
| 2026-05-06 18:06 | 42.36995 | -71.01425 | 19 ft | 17 kts | 135° |
| 2026-05-06 18:06 | 42.36921 | -71.01312 | 19 ft | 16 kts | 113° |
| 2026-05-06 18:07 | 42.36938 | -71.01172 | 19 ft | 15 kts | 68° |
| 2026-05-06 18:07 | 42.37024 | -71.01087 | 19 ft | 17 kts | 26° |
| 2026-05-06 18:07 | 42.37144 | -71.01010 | 19 ft | 17 kts | 26° |
| 2026-05-06 18:07 | 42.37215 | -71.00962 | 19 ft | 0 kts | 26° |
| 2026-05-06 18:08 | 42.37258 | -71.00934 | 19 ft | 19 kts | 26° |
| 2026-05-06 18:08 | 42.37408 | -71.00856 | 19 ft | 24 kts | 19° |
| 2026-05-06 18:08 | 42.37571 | -71.00777 | 19 ft | 25 kts | 20° |
| 2026-05-06 18:09 | 42.37734 | -71.00698 | 19 ft | 13 kts | 20° |
| 2026-05-06 18:09 | 42.37784 | -71.00673 | 19 ft | 8 kts | 20° |
| 2026-05-06 18:09 | 42.37810 | -71.00658 | 19 ft | 0 kts | 30° |
| 2026-05-06 18:09 | 42.37826 | -71.00640 | 21 ft | 9 kts | 45° |
| 2026-05-06 18:10 | 42.37837 | -71.00597 | 20 ft | 0 kts | 94° |
| 2026-05-06 18:10 | 42.37820 | -71.00520 | 19 ft | 18 kts | 110° |
| 2026-05-06 18:11 | 42.37767 | -71.00484 | 19 ft | 10 kts | 199° |
| 2026-05-06 18:11 | 42.37499 | -71.00613 | 21 ft | 78 kts | 199° |
| 2026-05-06 18:11 | 42.36757 | -71.00973 | 44 ft | 143 kts | 198° |
| 2026-05-06 18:11 | 42.35683 | -71.01508 | 397 ft | 192 kts | 197° |
| 2026-05-06 18:12 | 42.34222 | -71.01484 | 951 ft | 216 kts | 163° |
| 2026-05-06 18:12 | 42.33015 | -71.00382 | 1454 ft | 209 kts | 141° |
| 2026-05-06 18:12 | 42.32198 | -70.98781 | 2099 ft | 209 kts | 127° |
| 2026-05-06 18:12 | 42.31630 | -70.96931 | 3055 ft | 219 kts | 120° |
| 2026-05-06 18:13 | 42.31405 | -70.94584 | 3766 ft | 262 kts | 99° |
| 2026-05-06 18:13 | 42.31539 | -70.92112 | 5110 ft | 275 kts | 94° |
| 2026-05-06 18:13 | 42.31793 | -70.89435 | 5665 ft | 307 kts | 82° |
| 2026-05-06 18:13 | 42.32527 | -70.86576 | 6429 ft | 322 kts | 77° |
| 2026-05-06 18:14 | 42.33010 | -70.83734 | 7251 ft | 301 kts | 91° |
| 2026-05-06 18:14 | 42.33041 | -70.80890 | 8101 ft | 300 kts | 105° |
| 2026-05-06 18:14 | 42.32666 | -70.78241 | 8931 ft | 273 kts | 119° |
| 2026-05-06 18:14 | 42.31979 | -70.75949 | 9760 ft | 261 kts | 130° |
| 2026-05-06 18:15 | 42.31140 | -70.73726 | 10572 ft | 278 kts | 129° |
| 2026-05-06 18:15 | 42.30182 | -70.71420 | 11421 ft | 282 kts | 138° |
| 2026-05-06 18:15 | 42.28870 | -70.69420 | 12298 ft | 287 kts | 148° |
| 2026-05-06 18:15 | 42.27277 | -70.67785 | 13211 ft | 290 kts | 159° |
| 2026-05-06 18:16 | 42.25447 | -70.66606 | 14076 ft | 294 kts | 171° |
| 2026-05-06 18:16 | 42.23462 | -70.65738 | 14926 ft | 307 kts | 170° |
| 2026-05-06 18:16 | 42.21404 | -70.64741 | 15830 ft | 320 kts | 169° |
| 2026-05-06 18:16 | 42.19262 | -70.63739 | 16802 ft | 330 kts | 171° |
| 2026-05-06 18:17 | 42.17035 | -70.62856 | 17818 ft | 334 kts | 177° |
| 2026-05-06 18:17 | 42.14733 | -70.62451 | 18745 ft | 335 kts | 185° |
| 2026-05-06 18:17 | 42.12403 | -70.62515 | 19690 ft | 334 kts | 193° |
| 2026-05-06 18:17 | 42.10117 | -70.63053 | 20678 ft | 334 kts | 200° |
| 2026-05-06 18:18 | 42.07903 | -70.63994 | 21707 ft | 335 kts | 204° |
| 2026-05-06 18:18 | 42.05676 | -70.64973 | 22766 ft | 338 kts | 203° |
| 2026-05-06 18:18 | 42.03466 | -70.65929 | 23764 ft | 339 kts | 203° |
| 2026-05-06 18:18 | 42.01220 | -70.66922 | 24668 ft | 339 kts | 203° |
| 2026-05-06 18:19 | 41.98983 | -70.67910 | 25602 ft | 338 kts | 204° |
| 2026-05-06 18:19 | 41.96749 | -70.68892 | 26492 ft | 337 kts | 204° |
| 2026-05-06 18:19 | 41.94527 | -70.69864 | 27400 ft | 334 kts | 204° |
| 2026-05-06 18:19 | 41.92322 | -70.70833 | 28294 ft | 332 kts | 204° |
| 2026-05-06 18:20 | 41.90091 | -70.71818 | 28768 ft | 342 kts | 204° |
| 2026-05-06 18:20 | 41.87801 | -70.72822 | 29259 ft | 351 kts | 204° |
| 2026-05-06 18:20 | 41.85448 | -70.73851 | 29770 ft | 360 kts | 204° |
| 2026-05-06 18:20 | 41.83112 | -70.75095 | 30232 ft | 363 kts | 211° |
| 2026-05-06 18:21 | 41.80883 | -70.76740 | 30688 ft | 369 kts | 214° |
| 2026-05-06 18:21 | 41.78614 | -70.78448 | 31124 ft | 378 kts | 214° |
| 2026-05-06 18:21 | 41.76285 | -70.80182 | 31606 ft | 387 kts | 214° |
| 2026-05-06 18:21 | 41.73916 | -70.81963 | 32037 ft | 397 kts | 214° |
| 2026-05-06 18:22 | 41.71472 | -70.83806 | 32387 ft | 409 kts | 214° |
| 2026-05-06 18:22 | 41.68985 | -70.85670 | 32745 ft | 422 kts | 214° |
| 2026-05-06 18:22 | 41.66379 | -70.87619 | 33115 ft | 435 kts | 214° |
| 2026-05-06 18:22 | 41.63700 | -70.89623 | 33525 ft | 447 kts | 214° |
| 2026-05-06 18:23 | 41.60952 | -70.91681 | 33892 ft | 458 kts | 215° |
| 2026-05-06 18:23 | 41.58205 | -70.93958 | 33926 ft | 466 kts | 220° |
| 2026-05-06 18:23 | 41.53380 | -70.99656 | 33934 ft | 461 kts | 231° |
| 2026-05-06 18:24 | 41.49603 | -71.06448 | 33934 ft | 458 kts | 239° |
| 2026-05-06 18:24 | 41.46040 | -71.13512 | 33938 ft | 460 kts | 239° |
| 2026-05-06 18:25 | 41.42479 | -71.20629 | 33925 ft | 462 kts | 239° |
| 2026-05-06 18:25 | 41.38882 | -71.27759 | 33933 ft | 464 kts | 239° |
| 2026-05-06 18:26 | 41.35297 | -71.34868 | 33935 ft | 466 kts | 239° |
| 2026-05-06 18:26 | 41.31670 | -71.42050 | 33942 ft | 469 kts | 239° |
| 2026-05-06 18:27 | 41.28019 | -71.49261 | 33942 ft | 471 kts | 239° |
| 2026-05-06 18:27 | 41.24348 | -71.56493 | 33957 ft | 473 kts | 240° |
| 2026-05-06 18:28 | 41.20654 | -71.63753 | 33944 ft | 474 kts | 240° |
| 2026-05-06 18:28 | 41.16948 | -71.71022 | 33938 ft | 476 kts | 239° |
| 2026-05-06 18:29 | 41.13226 | -71.78309 | 33932 ft | 477 kts | 240° |
| 2026-05-06 18:29 | 41.09545 | -71.85550 | 33927 ft | 469 kts | 240° |
| 2026-05-06 18:30 | 41.05945 | -71.92618 | 33939 ft | 463 kts | 241° |
| 2026-05-06 18:30 | 41.02630 | -71.99854 | 33932 ft | 455 kts | 248° |
| 2026-05-06 18:31 | 40.99960 | -72.07446 | 33936 ft | 455 kts | 249° |
| 2026-05-06 18:31 | 40.97273 | -72.15021 | 33923 ft | 454 kts | 249° |
| 2026-05-06 18:32 | 40.94598 | -72.22600 | 33913 ft | 455 kts | 249° |
| 2026-05-06 18:32 | 40.91538 | -72.29968 | 33924 ft | 462 kts | 242° |
| 2026-05-06 18:33 | 40.87453 | -72.36565 | 33925 ft | 473 kts | 232° |
| 2026-05-06 18:33 | 40.82750 | -72.42698 | 33899 ft | 475 kts | 232° |
| 2026-05-06 18:34 | 40.77851 | -72.48601 | 33923 ft | 481 kts | 226° |
| 2026-05-06 18:34 | 40.72690 | -72.54204 | 33920 ft | 480 kts | 227° |
| 2026-05-06 18:35 | 40.67836 | -72.60146 | 33914 ft | 471 kts | 234° |
| 2026-05-06 18:35 | 40.63699 | -72.66708 | 33923 ft | 469 kts | 237° |
| 2026-05-06 18:36 | 40.59545 | -72.73294 | 33915 ft | 465 kts | 237° |
| 2026-05-06 18:36 | 40.55448 | -72.79847 | 33903 ft | 463 kts | 237° |
| 2026-05-06 18:37 | 40.52029 | -72.85283 | 33904 ft | 464 kts | 237° |
| 2026-05-06 18:37 | 40.47198 | -72.92950 | 33907 ft | 466 kts | 237° |
| 2026-05-06 18:38 | 40.43046 | -72.99526 | 33909 ft | 468 kts | 237° |
| 2026-05-06 18:38 | 40.38878 | -73.06103 | 33909 ft | 468 kts | 237° |
| 2026-05-06 18:39 | 40.34709 | -73.12678 | 33906 ft | 468 kts | 237° |
| 2026-05-06 18:40 | 40.28552 | -73.22349 | 33893 ft | 457 kts | 237° |
| 2026-05-06 18:40 | 40.24505 | -73.28699 | 33889 ft | 451 kts | 237° |
| 2026-05-06 18:41 | 40.20504 | -73.34964 | 33898 ft | 446 kts | 237° |
| 2026-05-06 18:41 | 40.16528 | -73.41177 | 33885 ft | 444 kts | 237° |
| 2026-05-06 18:42 | 40.12569 | -73.47350 | 33887 ft | 442 kts | 238° |
| 2026-05-06 18:42 | 40.08638 | -73.53469 | 33875 ft | 443 kts | 237° |
| 2026-05-06 18:43 | 40.04669 | -73.59634 | 33878 ft | 444 kts | 238° |
| 2026-05-06 18:43 | 40.00641 | -73.65792 | 33903 ft | 449 kts | 235° |
| 2026-05-06 18:44 | 39.95891 | -73.71276 | 33866 ft | 464 kts | 226° |
| 2026-05-06 18:44 | 39.90270 | -73.75665 | 33887 ft | 481 kts | 216° |
| 2026-05-06 18:45 | 39.84023 | -73.79049 | 33897 ft | 487 kts | 213° |
| 2026-05-06 18:45 | 39.77744 | -73.82418 | 33896 ft | 489 kts | 213° |
| 2026-05-06 18:46 | 39.71439 | -73.85751 | 33892 ft | 490 kts | 213° |
| 2026-05-06 18:46 | 39.65121 | -73.89114 | 33889 ft | 492 kts | 213° |
| 2026-05-06 18:47 | 39.58802 | -73.92449 | 33896 ft | 493 kts | 213° |
| 2026-05-06 18:47 | 39.52426 | -73.95821 | 33903 ft | 495 kts | 213° |
| 2026-05-06 18:48 | 39.46033 | -73.99196 | 33908 ft | 495 kts | 213° |
| 2026-05-06 18:48 | 39.40094 | -74.03367 | 33910 ft | 479 kts | 224° |
| 2026-05-06 18:49 | 39.34930 | -74.08635 | 33905 ft | 470 kts | 230° |
| 2026-05-06 18:49 | 39.29935 | -74.14051 | 33908 ft | 472 kts | 229° |
| 2026-05-06 18:50 | 39.24920 | -74.19536 | 33911 ft | 473 kts | 229° |
| 2026-05-06 18:50 | 39.20728 | -74.24082 | 33916 ft | 474 kts | 229° |
| 2026-05-06 18:51 | 39.15681 | -74.29562 | 33911 ft | 474 kts | 229° |
| 2026-05-06 18:51 | 39.10620 | -74.35043 | 33912 ft | 475 kts | 229° |
| 2026-05-06 18:52 | 39.05559 | -74.40509 | 33921 ft | 473 kts | 229° |
| 2026-05-06 18:52 | 39.00542 | -74.45918 | 33915 ft | 468 kts | 229° |
| 2026-05-06 18:53 | 38.95578 | -74.51266 | 33915 ft | 463 kts | 229° |
| 2026-05-06 18:53 | 38.90823 | -74.56728 | 33916 ft | 460 kts | 231° |
| 2026-05-06 18:54 | 38.86060 | -74.62270 | 33921 ft | 463 kts | 231° |
| 2026-05-06 18:54 | 38.81302 | -74.67851 | 33925 ft | 464 kts | 231° |
| 2026-05-06 18:55 | 38.76513 | -74.73426 | 33918 ft | 466 kts | 230° |
| 2026-05-06 18:55 | 38.71511 | -74.78797 | 33920 ft | 471 kts | 227° |
| 2026-05-06 18:56 | 38.66439 | -74.84134 | 33932 ft | 473 kts | 227° |
| 2026-05-06 18:56 | 38.61303 | -74.89448 | 33939 ft | 476 kts | 227° |
| 2026-05-06 18:57 | 38.56185 | -74.94777 | 33935 ft | 479 kts | 227° |
| 2026-05-06 18:57 | 38.51067 | -75.00228 | 33947 ft | 479 kts | 229° |
| 2026-05-06 18:58 | 38.45989 | -75.05797 | 33953 ft | 486 kts | 225° |
| 2026-05-06 18:58 | 38.40530 | -75.10939 | 33962 ft | 488 kts | 224° |
| 2026-05-06 18:59 | 38.35087 | -75.16156 | 33943 ft | 491 kts | 223° |
| 2026-05-06 18:59 | 38.29579 | -75.21351 | 33946 ft | 493 kts | 224° |
| 2026-05-06 19:00 | 38.24067 | -75.26583 | 33960 ft | 495 kts | 223° |
| 2026-05-06 19:00 | 38.18527 | -75.31807 | 33933 ft | 496 kts | 223° |
| 2026-05-06 19:01 | 38.12979 | -75.37042 | 33931 ft | 497 kts | 223° |
| 2026-05-06 19:01 | 38.07453 | -75.42238 | 33934 ft | 498 kts | 223° |
| 2026-05-06 19:02 | 38.01780 | -75.47334 | 33947 ft | 501 kts | 220° |
| 2026-05-06 19:02 | 37.96108 | -75.52279 | 33942 ft | 487 kts | 221° |
| 2026-05-06 19:03 | 37.90449 | -75.56878 | 33945 ft | 482 kts | 214° |
| 2026-05-06 19:03 | 37.84224 | -75.60025 | 33941 ft | 483 kts | 203° |
| 2026-05-06 19:04 | 37.77578 | -75.61493 | 33943 ft | 487 kts | 192° |
| 2026-05-06 19:04 | 37.70739 | -75.61279 | 33953 ft | 494 kts | 186° |
| 2026-05-06 19:05 | 37.63980 | -75.62023 | 33968 ft | 487 kts | 198° |
| 2026-05-06 19:05 | 37.57253 | -75.63479 | 33976 ft | 499 kts | 197° |
| 2026-05-06 19:06 | 37.50348 | -75.64970 | 33968 ft | 508 kts | 197° |
| 2026-05-06 19:06 | 37.43319 | -75.66485 | 33958 ft | 516 kts | 197° |
| 2026-05-06 19:07 | 37.36190 | -75.68019 | 33953 ft | 523 kts | 197° |
| 2026-05-06 19:07 | 37.28955 | -75.69569 | 33944 ft | 529 kts | 197° |
| 2026-05-06 19:08 | 37.21659 | -75.71136 | 33954 ft | 534 kts | 197° |
| 2026-05-06 19:08 | 37.14303 | -75.72707 | 33954 ft | 538 kts | 197° |
| 2026-05-06 19:09 | 37.07063 | -75.74653 | 33939 ft | 530 kts | 204° |
| 2026-05-06 19:09 | 37.00382 | -75.78262 | 33942 ft | 516 kts | 216° |
| 2026-05-06 19:10 | 36.94101 | -75.82625 | 33959 ft | 516 kts | 216° |
| 2026-05-06 19:10 | 36.87848 | -75.86955 | 33957 ft | 512 kts | 216° |
| 2026-05-06 19:11 | 36.81625 | -75.91258 | 33959 ft | 510 kts | 216° |
| 2026-05-06 19:11 | 36.75475 | -75.95504 | 33944 ft | 507 kts | 216° |
| 2026-05-06 19:12 | 36.69297 | -75.99758 | 33967 ft | 505 kts | 216° |
| 2026-05-06 19:12 | 36.63154 | -76.03984 | 33966 ft | 503 kts | 216° |
| 2026-05-06 19:13 | 36.57031 | -76.08186 | 33962 ft | 501 kts | 217° |
| 2026-05-06 19:13 | 36.50928 | -76.12367 | 33971 ft | 500 kts | 217° |
| 2026-05-06 19:14 | 36.44845 | -76.16527 | 33977 ft | 498 kts | 217° |
| 2026-05-06 19:14 | 36.38790 | -76.20658 | 33978 ft | 496 kts | 216° |
| 2026-05-06 19:15 | 36.32787 | -76.24751 | 33981 ft | 494 kts | 216° |
| 2026-05-06 19:15 | 36.26770 | -76.28843 | 33980 ft | 493 kts | 216° |
| 2026-05-06 19:16 | 36.20764 | -76.32921 | 33981 ft | 491 kts | 216° |
| 2026-05-06 19:16 | 36.14781 | -76.36975 | 33978 ft | 489 kts | 216° |
| 2026-05-06 19:17 | 36.08815 | -76.41014 | 33995 ft | 489 kts | 216° |
| 2026-05-06 19:17 | 36.02828 | -76.45058 | 33999 ft | 491 kts | 216° |
| 2026-05-06 19:18 | 35.96847 | -76.49092 | 33989 ft | 495 kts | 217° |
| 2026-05-06 19:18 | 35.90782 | -76.53173 | 34011 ft | 499 kts | 217° |
| 2026-05-06 19:19 | 35.84535 | -76.57096 | 34006 ft | 506 kts | 215° |
| 2026-05-06 19:19 | 35.78210 | -76.61006 | 34009 ft | 510 kts | 215° |
| 2026-05-06 19:20 | 35.71823 | -76.64938 | 33995 ft | 515 kts | 215° |
| 2026-05-06 19:20 | 35.65388 | -76.68900 | 34008 ft | 518 kts | 215° |
| 2026-05-06 19:21 | 35.58913 | -76.72872 | 34019 ft | 521 kts | 215° |
| 2026-05-06 19:21 | 35.52415 | -76.76855 | 34018 ft | 523 kts | 215° |
| 2026-05-06 19:22 | 35.45936 | -76.80818 | 34001 ft | 524 kts | 214° |
| 2026-05-06 19:22 | 35.39399 | -76.84810 | 34004 ft | 526 kts | 214° |
| 2026-05-06 19:23 | 35.32832 | -76.88811 | 34013 ft | 525 kts | 214° |
| 2026-05-06 19:23 | 35.26301 | -76.92784 | 34010 ft | 522 kts | 214° |
| 2026-05-06 19:24 | 35.19841 | -76.96757 | 33999 ft | 516 kts | 216° |
| 2026-05-06 19:24 | 35.13499 | -77.00794 | 34026 ft | 512 kts | 215° |
| 2026-05-06 19:25 | 35.07170 | -77.04715 | 34025 ft | 508 kts | 216° |
| 2026-05-06 19:25 | 35.00909 | -77.08649 | 34027 ft | 504 kts | 216° |
| 2026-05-06 19:26 | 34.94721 | -77.12496 | 34024 ft | 501 kts | 216° |
| 2026-05-06 19:26 | 34.88508 | -77.16371 | 34024 ft | 502 kts | 216° |
| 2026-05-06 19:27 | 34.82271 | -77.20245 | 34018 ft | 504 kts | 215° |
| 2026-05-06 19:27 | 34.75996 | -77.24139 | 34043 ft | 508 kts | 215° |
| 2026-05-06 19:28 | 34.69655 | -77.28065 | 34044 ft | 514 kts | 215° |
| 2026-05-06 19:28 | 34.63248 | -77.32027 | 34046 ft | 519 kts | 215° |
| 2026-05-06 19:29 | 34.56782 | -77.36017 | 34032 ft | 524 kts | 214° |
| 2026-05-06 19:29 | 34.50157 | -77.39870 | 34026 ft | 537 kts | 208° |
| 2026-05-06 19:30 | 34.42804 | -77.42193 | 34043 ft | 557 kts | 196° |
| 2026-05-06 19:30 | 34.35146 | -77.43683 | 34055 ft | 557 kts | 197° |
| 2026-05-06 19:31 | 34.27547 | -77.45170 | 34045 ft | 557 kts | 196° |
| 2026-05-06 19:31 | 34.16049 | -77.47415 | 34046 ft | 558 kts | 196° |
| 2026-05-06 19:32 | 34.08373 | -77.48903 | 34036 ft | 559 kts | 196° |
| 2026-05-06 19:32 | 34.00678 | -77.50400 | 34044 ft | 559 kts | 196° |
| 2026-05-06 19:33 | 33.92986 | -77.51889 | 34050 ft | 560 kts | 196° |
| 2026-05-06 19:33 | 33.85332 | -77.53371 | 34052 ft | 561 kts | 196° |
| 2026-05-06 19:34 | 33.77617 | -77.54860 | 34053 ft | 562 kts | 196° |
| 2026-05-06 19:34 | 33.69889 | -77.56351 | 34053 ft | 563 kts | 196° |
| 2026-05-06 19:35 | 33.62147 | -77.57841 | 34057 ft | 563 kts | 196° |
| 2026-05-06 19:35 | 33.54563 | -77.59858 | 34065 ft | 552 kts | 204° |
| 2026-05-06 19:36 | 33.47175 | -77.62433 | 34070 ft | 552 kts | 203° |
| 2026-05-06 19:36 | 33.39855 | -77.65003 | 34069 ft | 550 kts | 204° |
| 2026-05-06 19:37 | 33.32492 | -77.67568 | 34053 ft | 550 kts | 203° |
| 2026-05-06 19:37 | 33.26396 | -77.69693 | 34060 ft | 549 kts | 204° |
| 2026-05-06 19:38 | 33.19066 | -77.72246 | 34062 ft | 548 kts | 204° |
| 2026-05-06 19:38 | 33.11746 | -77.74789 | 34064 ft | 547 kts | 204° |
| 2026-05-06 19:39 | 33.04444 | -77.77319 | 34060 ft | 546 kts | 204° |
| 2026-05-06 19:39 | 32.97149 | -77.79848 | 34068 ft | 545 kts | 204° |
| 2026-05-06 19:40 | 32.89872 | -77.82360 | 34063 ft | 544 kts | 204° |
| 2026-05-06 19:40 | 32.82650 | -77.84852 | 34070 ft | 543 kts | 204° |
| 2026-05-06 19:41 | 32.75384 | -77.87354 | 34068 ft | 543 kts | 204° |
| 2026-05-06 19:41 | 32.68126 | -77.89851 | 34065 ft | 542 kts | 204° |
| 2026-05-06 19:42 | 32.60885 | -77.92245 | 34071 ft | 545 kts | 202° |
| 2026-05-06 19:42 | 32.53572 | -77.94579 | 34075 ft | 543 kts | 204° |
| 2026-05-06 19:43 | 32.46274 | -77.96974 | 34081 ft | 546 kts | 204° |
| 2026-05-06 19:43 | 32.38925 | -77.99327 | 34089 ft | 548 kts | 204° |
| 2026-05-06 19:44 | 32.31546 | -78.01724 | 34071 ft | 551 kts | 204° |
| 2026-05-06 19:44 | 32.24167 | -78.04094 | 34086 ft | 553 kts | 204° |
| 2026-05-06 19:45 | 32.16725 | -78.06493 | 34097 ft | 555 kts | 204° |
| 2026-05-06 19:45 | 32.09256 | -78.08890 | 34094 ft | 557 kts | 204° |
| 2026-05-06 19:46 | 32.01762 | -78.11292 | 34086 ft | 559 kts | 204° |
| 2026-05-06 19:46 | 31.94236 | -78.13703 | 34092 ft | 561 kts | 204° |
| 2026-05-06 19:47 | 31.86690 | -78.16113 | 34098 ft | 563 kts | 204° |
| 2026-05-06 19:47 | 31.79115 | -78.18529 | 34085 ft | 565 kts | 203° |
| 2026-05-06 19:48 | 31.71554 | -78.20938 | 34085 ft | 567 kts | 203° |
| 2026-05-06 19:48 | 31.63923 | -78.23365 | 34089 ft | 569 kts | 203° |
| 2026-05-06 19:49 | 31.56264 | -78.25797 | 33924 ft | 572 kts | 203° |
| 2026-05-06 19:49 | 31.48553 | -78.28237 | 33612 ft | 571 kts | 202° |
| 2026-05-06 19:50 | 31.44739 | -78.29443 | 33337 ft | 561 kts | 203° |
| 2026-05-06 19:50 | 31.41008 | -78.30707 | 33080 ft | 558 kts | 204° |
| 2026-05-06 19:50 | 31.37286 | -78.32020 | 32831 ft | 559 kts | 204° |
| 2026-05-06 19:50 | 31.33589 | -78.33252 | 32587 ft | 558 kts | 202° |
| 2026-05-06 19:51 | 31.29856 | -78.34451 | 32348 ft | 555 kts | 202° |
| 2026-05-06 19:51 | 31.26149 | -78.35690 | 32076 ft | 552 kts | 203° |
| 2026-05-06 19:51 | 31.22469 | -78.36954 | 31838 ft | 549 kts | 203° |
| 2026-05-06 19:51 | 31.18795 | -78.38180 | 31600 ft | 547 kts | 202° |
| 2026-05-06 19:52 | 31.15131 | -78.39378 | 31356 ft | 545 kts | 202° |
| 2026-05-06 19:52 | 31.11499 | -78.40588 | 31118 ft | 542 kts | 202° |
| 2026-05-06 19:52 | 31.07879 | -78.41808 | 30885 ft | 539 kts | 202° |
| 2026-05-06 19:52 | 31.04276 | -78.43006 | 30651 ft | 536 kts | 201° |
| 2026-05-06 19:53 | 31.00695 | -78.44186 | 30414 ft | 534 kts | 201° |
| 2026-05-06 19:53 | 30.97132 | -78.45370 | 30161 ft | 531 kts | 202° |
| 2026-05-06 19:53 | 30.93595 | -78.46548 | 29895 ft | 528 kts | 202° |
| 2026-05-06 19:53 | 30.90071 | -78.47718 | 29622 ft | 525 kts | 202° |
| 2026-05-06 19:54 | 30.86566 | -78.48875 | 29360 ft | 522 kts | 202° |
| 2026-05-06 19:54 | 30.83075 | -78.50031 | 29094 ft | 520 kts | 202° |
| 2026-05-06 19:54 | 30.79610 | -78.51180 | 28831 ft | 517 kts | 202° |
| 2026-05-06 19:54 | 30.76141 | -78.52327 | 28573 ft | 521 kts | 202° |
| 2026-05-06 19:55 | 30.72641 | -78.53488 | 28296 ft | 525 kts | 202° |
| 2026-05-06 19:55 | 30.69117 | -78.54647 | 28094 ft | 527 kts | 202° |
| 2026-05-06 19:55 | 30.62159 | -78.56934 | 28100 ft | 520 kts | 202° |
| 2026-05-06 19:56 | 30.55224 | -78.59221 | 28091 ft | 515 kts | 202° |
| 2026-05-06 19:56 | 30.48363 | -78.61474 | 28087 ft | 510 kts | 202° |
| 2026-05-06 19:57 | 30.41565 | -78.63706 | 28084 ft | 505 kts | 202° |
| 2026-05-06 19:57 | 30.34829 | -78.65915 | 28085 ft | 501 kts | 202° |
| 2026-05-06 19:58 | 30.28138 | -78.68105 | 28091 ft | 497 kts | 202° |
| 2026-05-06 19:58 | 30.21479 | -78.70283 | 28089 ft | 499 kts | 202° |